createdAt,value
2022-12-06T00:01:11.284Z,4.90
2022-12-06T00:03:42.356Z,5.00
2022-12-06T00:06:12.445Z,5.10
2022-12-06T00:08:41.970Z,5.10
2022-12-06T00:11:11.721Z,5.10
2022-12-06T00:13:40.273Z,5.00
2022-12-06T00:16:11.029Z,5.10
2022-12-06T00:18:40.481Z,5.20
2022-12-06T00:21:09.546Z,5.00
2022-12-06T00:23:38.708Z,4.90
2022-12-06T00:26:09.015Z,4.90
2022-12-06T00:28:38.274Z,4.80
2022-12-06T00:31:08.415Z,4.80
2022-12-06T00:33:38.129Z,4.80
2022-12-06T00:36:09.382Z,4.70
2022-12-06T00:38:37.667Z,4.70
2022-12-06T00:41:09.481Z,4.70
2022-12-06T00:43:38.295Z,4.60
2022-12-06T00:46:08.312Z,4.60
2022-12-06T00:48:37.098Z,4.50
2022-12-06T07:12:23.251Z,0.80
2022-12-06T07:14:51.074Z,3.00
2022-12-06T07:17:18.980Z,3.10
2022-12-06T07:19:47.816Z,3.10
2022-12-06T07:22:15.728Z,3.20
2022-12-06T07:24:46.652Z,3.30
2022-12-06T07:27:18.893Z,3.40
2022-12-06T07:29:48.692Z,3.40
2022-12-06T07:32:17.252Z,3.40
2022-12-06T07:34:45.198Z,3.40
2022-12-06T07:37:13.496Z,3.20
2022-12-06T07:39:42.567Z,3.30
2022-12-06T07:42:29.254Z,3.30
2022-12-06T07:45:05.571Z,3.30
2022-12-06T07:47:34.956Z,3.50
2022-12-06T07:50:03.439Z,3.70
2022-12-06T07:52:33.046Z,4.10
2022-12-06T07:55:01.126Z,4.30
2022-12-06T07:57:29.698Z,4.50
2022-12-06T07:59:59.374Z,4.70
2022-12-06T08:02:28.886Z,4.90
2022-12-06T08:04:57.642Z,5.40
2022-12-06T08:07:27.031Z,5.70
2022-12-06T08:09:55.147Z,6.00
2022-12-06T08:12:23.345Z,6.30
2022-12-06T08:14:55.372Z,6.70
2022-12-06T08:17:29.053Z,7.00
2022-12-06T08:19:57.122Z,7.40
2022-12-06T08:22:25.209Z,7.40
2022-12-06T08:24:53.268Z,7.30
2022-12-06T08:27:21.382Z,7.20
2022-12-06T08:29:49.465Z,7.10
2022-12-06T08:32:17.975Z,7.10
2022-12-06T08:34:47.500Z,6.90
2022-12-06T08:37:15.389Z,7.10
2022-12-06T08:39:43.452Z,7.30
2022-12-06T08:42:11.357Z,7.10
2022-12-06T08:44:39.358Z,7.10
2022-12-06T08:47:07.701Z,7.30
2022-12-06T08:49:35.971Z,7.40
2022-12-06T08:52:05.613Z,7.30
2022-12-06T08:54:35.325Z,7.30
2022-12-06T08:57:03.493Z,7.30
2022-12-06T08:59:31.480Z,7.30
2022-12-06T09:01:59.487Z,7.30
2022-12-06T09:04:28.473Z,7.30
2022-12-06T09:06:56.703Z,7.30
2022-12-06T09:09:26.398Z,7.30
2022-12-06T09:11:54.319Z,7.20
2022-12-06T09:14:22.787Z,7.20
2022-12-06T09:16:52.132Z,7.00
2022-12-06T09:19:21.015Z,6.90
2022-12-06T09:21:49.049Z,6.90
2022-12-06T09:24:19.223Z,7.00
2022-12-06T09:26:49.119Z,6.80
2022-12-06T09:29:18.488Z,6.80
2022-12-06T09:31:46.814Z,6.90
2022-12-06T09:34:15.307Z,6.90
2022-12-06T09:36:46.049Z,6.80
2022-12-06T09:39:17.400Z,6.80
2022-12-06T09:42:18.338Z,6.80
2022-12-06T09:45:08.839Z,6.80
2022-12-06T09:47:50.542Z,6.70
2022-12-06T09:50:29.037Z,6.60
2022-12-06T09:53:15.853Z,6.40
2022-12-06T09:55:51.634Z,6.50
2022-12-06T09:58:32.144Z,6.60
2022-12-06T10:01:11.984Z,6.80
2022-12-06T10:03:52.938Z,6.60
2022-12-06T10:06:25.188Z,6.70
2022-12-06T10:09:26.561Z,6.70
2022-12-06T10:12:17.175Z,6.60
2022-12-06T10:15:12.354Z,6.50
2022-12-06T10:17:52.655Z,6.40
2022-12-06T10:20:26.450Z,6.50
2022-12-06T10:23:06.187Z,6.60
2022-12-06T10:25:42.989Z,6.70
2022-12-06T10:28:14.580Z,6.70
2022-12-06T10:30:51.727Z,6.80
2022-12-06T10:33:30.454Z,7.00
2022-12-06T10:36:02.335Z,6.90
2022-12-06T10:38:36.869Z,7.00
2022-12-06T10:41:14.190Z,6.90
2022-12-06T10:43:50.588Z,6.80
2022-12-06T10:46:42.487Z,6.60
2022-12-06T10:49:20.168Z,6.70
2022-12-06T10:51:56.024Z,6.60
2022-12-06T10:54:30.251Z,6.60
2022-12-06T10:57:01.676Z,6.60
2022-12-06T10:59:36.458Z,6.60
2022-12-06T11:02:23.082Z,6.50
2022-12-06T11:04:53.379Z,6.30
2022-12-06T11:07:25.219Z,6.50
2022-12-06T11:09:55.035Z,6.30
2022-12-06T11:12:31.180Z,6.30
2022-12-06T11:15:08.181Z,6.30
2022-12-06T11:17:44.384Z,6.50
2022-12-06T11:20:22.406Z,6.50
2022-12-06T11:22:59.522Z,6.50
2022-12-06T11:25:32.879Z,6.50
2022-12-06T11:28:12.210Z,6.50
2022-12-06T11:30:40.406Z,6.60
2022-12-06T11:33:11.939Z,6.60
2022-12-06T11:35:40.669Z,6.60
2022-12-06T11:38:08.913Z,6.60
2022-12-06T11:40:38.912Z,6.60
2022-12-06T11:43:09.422Z,6.70
2022-12-06T11:45:41.490Z,6.60
2022-12-06T11:48:16.588Z,6.50
2022-12-06T11:50:45.729Z,6.50
2022-12-06T11:53:20.498Z,6.50
2022-12-06T11:55:53.305Z,6.40
2022-12-06T11:58:29.408Z,6.40
2022-12-06T12:01:01.117Z,6.50
2022-12-06T12:03:32.729Z,6.50
2022-12-06T12:06:17.956Z,6.50
2022-12-06T12:08:59.552Z,6.50
2022-12-06T12:11:31.177Z,6.50
2022-12-06T12:14:02.635Z,6.50
2022-12-06T12:16:34.378Z,6.60
2022-12-06T12:19:06.925Z,6.70
2022-12-06T12:21:38.782Z,6.70
2022-12-06T12:24:28.285Z,6.70
2022-12-06T12:26:56.405Z,6.70
2022-12-06T12:29:24.580Z,6.70
2022-12-06T12:31:56.328Z,6.70
2022-12-06T12:34:27.381Z,6.70
2022-12-06T12:36:57.845Z,6.80
2022-12-06T12:39:35.441Z,6.80
2022-12-06T12:42:04.512Z,6.80
2022-12-06T12:44:38.077Z,6.80
2022-12-06T12:47:18.238Z,6.70
2022-12-06T12:50:01.917Z,6.80
2022-12-06T12:52:32.016Z,6.80
2022-12-06T12:55:03.735Z,6.80
2022-12-06T12:57:32.097Z,6.90
2022-12-06T13:00:00.386Z,6.70
2022-12-06T13:02:30.762Z,6.60
2022-12-06T13:05:31.874Z,6.50
2022-12-06T13:07:56.029Z,6.60
2022-12-06T13:10:30.267Z,6.60
2022-12-06T13:13:01.636Z,6.60
2022-12-06T13:15:35.268Z,6.70
2022-12-06T13:18:11.377Z,6.60
2022-12-06T13:20:41.944Z,6.60
2022-12-06T13:23:14.524Z,6.50
2022-12-06T13:25:46.063Z,6.60
2022-12-06T13:28:20.109Z,6.60
2022-12-06T13:30:51.831Z,6.60
2022-12-06T13:33:22.462Z,6.70
2022-12-06T13:35:58.600Z,6.90
2022-12-06T13:38:31.863Z,7.00
2022-12-06T13:41:00.427Z,6.90
2022-12-06T13:43:56.153Z,6.90
2022-12-06T13:46:34.478Z,6.80
2022-12-06T13:49:24.684Z,6.80
2022-12-06T13:51:54.260Z,6.80
2022-12-06T13:54:37.145Z,6.80
2022-12-06T13:57:24.446Z,6.70
2022-12-06T13:59:52.592Z,6.80
2022-12-06T14:02:54.648Z,6.70
2022-12-06T14:08:23.581Z,6.90
2022-12-06T14:10:51.602Z,6.90
2022-12-06T14:13:21.741Z,6.80
2022-12-06T14:15:51.647Z,6.70
2022-12-06T14:18:23.033Z,6.90
2022-12-06T14:20:53.612Z,7.00
2022-12-06T14:23:28.903Z,7.10
2022-12-06T14:26:17.054Z,7.00
2022-12-06T14:28:45.933Z,6.90
2022-12-06T14:31:22.087Z,6.80
2022-12-06T14:33:50.967Z,6.80
2022-12-06T14:36:23.855Z,6.70
2022-12-06T14:38:56.756Z,6.70
2022-12-06T14:41:48.274Z,6.70
2022-12-06T14:44:18.789Z,6.60
2022-12-06T14:46:48.577Z,6.60
2022-12-06T14:49:38.105Z,6.50
2022-12-06T14:52:23.044Z,6.70
2022-12-06T14:54:53.189Z,6.80
2022-12-06T14:57:28.008Z,6.90
2022-12-06T15:00:22.370Z,7.00
2022-12-06T15:03:23.774Z,6.90
2022-12-06T15:05:57.402Z,6.80
2022-12-06T15:08:37.550Z,6.60
2022-12-06T15:11:40.993Z,6.50
2022-12-06T15:14:14.185Z,6.50
2022-12-06T15:16:43.681Z,6.50
2022-12-06T15:19:13.857Z,6.50
2022-12-06T15:21:42.331Z,6.40
2022-12-06T15:24:18.860Z,6.50
2022-12-06T15:26:49.051Z,6.60
2022-12-06T15:29:28.790Z,6.40
2022-12-06T15:31:57.220Z,6.40
2022-12-06T15:34:27.841Z,6.40
2022-12-06T15:37:22.314Z,6.30
2022-12-06T15:39:46.183Z,6.20
2022-12-06T15:42:19.231Z,6.20
2022-12-06T15:44:49.816Z,6.20
2022-12-06T15:47:19.551Z,6.20
2022-12-06T15:49:48.901Z,6.20
2022-12-06T15:52:18.159Z,6.20
2022-12-06T15:54:46.472Z,6.00
2022-12-06T15:57:15.869Z,6.00
2022-12-06T15:59:43.856Z,5.80
2022-12-06T16:02:16.011Z,5.90
2022-12-06T16:04:44.704Z,5.90
2022-12-06T16:07:19.063Z,5.90
2022-12-06T16:09:47.384Z,5.80
2022-12-06T16:12:17.035Z,5.80
2022-12-06T16:14:45.288Z,5.60
2022-12-06T16:17:13.195Z,5.70
2022-12-06T16:20:01.060Z,5.70
2022-12-06T16:22:42.961Z,5.70
2022-12-06T16:25:11.299Z,5.80
2022-12-06T16:27:40.782Z,5.80
2022-12-06T16:30:10.169Z,5.80
2022-12-06T16:32:38.204Z,5.70
2022-12-06T16:35:06.677Z,5.90
2022-12-06T16:37:34.934Z,5.80
2022-12-06T16:40:02.986Z,5.70
2022-12-06T16:42:31.709Z,5.80
2022-12-06T16:45:01.592Z,5.80
2022-12-06T16:49:56.603Z,5.60
2022-12-06T16:52:24.987Z,5.60
2022-12-06T16:54:53.120Z,5.60
2022-12-06T16:57:21.620Z,5.60
2022-12-06T16:59:49.809Z,5.60
2022-12-06T17:02:28.472Z,5.70
2022-12-06T17:04:57.365Z,5.60
2022-12-06T17:07:25.632Z,5.50
2022-12-06T17:09:53.706Z,5.40
2022-12-06T17:12:22.423Z,5.40
2022-12-06T17:14:50.495Z,5.40
2022-12-06T17:17:21.318Z,5.50
2022-12-06T17:19:50.913Z,5.50
2022-12-06T17:22:19.730Z,5.60
2022-12-06T17:24:48.177Z,5.50
2022-12-06T17:27:17.321Z,5.50
2022-12-06T17:29:45.574Z,5.50
2022-12-06T17:32:13.968Z,5.60
2022-12-06T17:34:42.094Z,5.60
2022-12-06T17:37:12.042Z,5.70
2022-12-06T17:39:40.149Z,5.70
2022-12-06T17:42:25.813Z,5.60
2022-12-06T17:44:54.067Z,5.60
2022-12-06T17:47:22.343Z,5.60
2022-12-06T17:49:50.377Z,5.50
2022-12-06T17:52:20.158Z,5.50
2022-12-06T17:54:48.186Z,5.50
2022-12-06T17:57:18.374Z,5.60
2022-12-06T17:59:48.215Z,5.40
2022-12-06T18:02:18.402Z,5.50
2022-12-06T18:04:47.887Z,5.50
2022-12-06T18:07:17.090Z,5.50
2022-12-06T18:09:47.082Z,5.50
2022-12-06T18:12:16.706Z,5.60
2022-12-06T18:14:45.177Z,5.60
2022-12-06T18:17:13.520Z,5.60
2022-12-06T18:19:41.868Z,5.60
2022-12-06T18:22:10.493Z,5.60
2022-12-06T18:24:38.733Z,5.60
2022-12-06T18:27:08.901Z,5.70
2022-12-06T18:29:36.912Z,5.70
2022-12-06T18:32:05.716Z,5.80
2022-12-06T18:34:33.874Z,5.80
2022-12-06T18:37:02.416Z,5.80
2022-12-06T18:39:30.766Z,5.70
2022-12-06T18:41:58.705Z,5.70
2022-12-06T18:44:28.095Z,5.80
2022-12-06T18:46:56.219Z,5.70
2022-12-06T18:49:24.304Z,5.80
2022-12-06T18:51:52.414Z,5.80
2022-12-06T18:54:21.549Z,5.80
2022-12-06T18:56:49.649Z,5.70
2022-12-06T18:59:17.595Z,5.70
2022-12-06T19:01:49.090Z,5.60
2022-12-06T19:04:18.814Z,5.60
2022-12-06T19:06:47.031Z,5.60
2022-12-06T19:09:16.445Z,5.60
2022-12-06T19:11:47.009Z,5.70
2022-12-06T19:14:16.321Z,5.70
2022-12-06T19:16:47.125Z,5.60
2022-12-06T19:19:17.529Z,5.50
2022-12-06T19:21:46.646Z,5.60
2022-12-06T19:24:17.073Z,5.60
2022-12-06T19:26:46.084Z,5.60
2022-12-06T19:29:14.455Z,5.60
2022-12-06T19:31:43.009Z,5.70
2022-12-06T19:34:17.722Z,5.70
2022-12-06T19:36:46.727Z,5.70
2022-12-06T19:39:15.205Z,5.70
2022-12-06T19:42:01.204Z,5.70
2022-12-06T19:44:29.729Z,5.60
2022-12-06T19:46:58.623Z,5.70
2022-12-06T19:49:29.144Z,5.80
2022-12-06T19:51:57.085Z,5.80
2022-12-06T19:54:27.488Z,5.80
2022-12-06T19:56:57.137Z,5.70
2022-12-06T19:59:29.364Z,5.90
2022-12-06T20:01:58.733Z,5.70
2022-12-06T20:04:30.428Z,5.60
2022-12-06T20:06:59.651Z,5.50
2022-12-06T20:09:30.825Z,5.50
2022-12-06T20:12:04.324Z,5.50
2022-12-06T20:14:37.251Z,5.60
2022-12-06T20:17:08.405Z,5.60
2022-12-06T20:19:38.672Z,5.60
2022-12-06T20:22:07.011Z,5.60
2022-12-06T20:24:35.387Z,5.70
2022-12-06T20:27:03.652Z,5.70
2022-12-06T20:29:32.873Z,5.70
2022-12-06T20:32:02.121Z,5.70
2022-12-06T20:34:34.303Z,5.70
2022-12-06T20:37:05.952Z,5.60
2022-12-06T20:39:36.152Z,5.60
2022-12-06T20:42:05.473Z,5.60
2022-12-06T20:44:34.147Z,5.80
2022-12-06T20:47:02.288Z,5.80
2022-12-06T20:49:30.610Z,5.60
2022-12-06T20:52:00.649Z,5.70
2022-12-06T20:54:29.924Z,5.70
2022-12-06T20:56:59.046Z,5.60
2022-12-06T20:59:27.338Z,5.60
2022-12-06T21:01:55.726Z,5.60
2022-12-06T21:04:23.957Z,5.60
2022-12-06T21:06:52.041Z,5.60
2022-12-06T21:09:20.366Z,5.70
2022-12-06T21:11:50.233Z,5.50
2022-12-06T21:14:19.238Z,5.50
2022-12-06T21:16:47.294Z,5.50
2022-12-06T21:19:17.845Z,5.30
2022-12-06T21:21:48.601Z,5.40
2022-12-06T21:24:18.967Z,5.40
2022-12-06T21:26:47.787Z,5.40
2022-12-06T21:29:20.086Z,5.40
2022-12-06T21:31:49.830Z,5.30
2022-12-06T21:34:17.715Z,5.30
2022-12-06T21:36:46.370Z,5.20
2022-12-06T21:39:14.986Z,5.20
2022-12-06T21:41:43.068Z,5.10
2022-12-06T21:44:11.066Z,5.20
2022-12-06T21:46:40.534Z,5.10
2022-12-06T21:49:10.768Z,5.00
2022-12-06T21:51:38.701Z,5.00
2022-12-06T21:54:06.982Z,5.00
2022-12-06T21:56:35.364Z,4.90
2022-12-06T21:59:03.936Z,4.90
2022-12-06T22:01:32.679Z,4.90
2022-12-06T22:04:04.576Z,5.00
2022-12-06T22:06:35.523Z,5.00
2022-12-06T22:09:06.357Z,4.90
2022-12-06T22:11:35.042Z,4.80
2022-12-06T22:14:04.921Z,4.70
2022-12-06T22:16:33.873Z,4.70
2022-12-06T22:19:03.800Z,4.90
2022-12-06T22:21:33.383Z,4.80
2022-12-06T22:24:01.414Z,4.80
2022-12-06T22:26:31.064Z,4.80
2022-12-06T22:28:59.453Z,4.90
2022-12-06T22:31:29.311Z,4.80
2022-12-06T22:33:58.432Z,4.80
2022-12-06T22:36:29.248Z,4.80
2022-12-06T22:38:59.064Z,4.90
2022-12-06T22:41:28.372Z,4.80
2022-12-06T22:43:58.329Z,4.90
2022-12-06T22:46:27.226Z,4.90
2022-12-06T22:48:56.222Z,4.90
2022-12-06T22:51:26.200Z,5.00
2022-12-06T22:53:57.352Z,5.10
2022-12-06T22:56:26.159Z,5.10
2022-12-06T22:58:54.697Z,5.20
2022-12-06T23:01:25.397Z,5.20
2022-12-06T23:03:54.655Z,5.20
2022-12-06T23:06:25.519Z,5.00
2022-12-06T23:08:55.389Z,4.90
2022-12-06T23:11:25.438Z,4.80
2022-12-06T23:13:54.788Z,4.90
2022-12-06T23:16:25.688Z,5.00
2022-12-06T23:18:54.147Z,4.80
2022-12-06T23:21:23.872Z,4.90
2022-12-06T23:23:53.989Z,4.90
2022-12-06T23:26:25.015Z,4.80
2022-12-06T23:28:53.670Z,4.70
2022-12-06T23:31:23.506Z,4.80
2022-12-06T23:33:55.091Z,4.70
2022-12-06T23:36:25.443Z,4.80
2022-12-06T23:38:53.754Z,4.80
2022-12-06T23:41:25.152Z,4.90
2022-12-06T23:43:54.226Z,5.00
2022-12-06T23:46:24.433Z,5.00
2022-12-06T23:48:53.335Z,5.00
2022-12-06T23:51:23.084Z,4.90
2022-12-06T23:53:52.602Z,4.90
2022-12-06T23:56:22.146Z,4.80
2022-12-06T23:58:52.686Z,4.80
